createdAt,value
2022-12-04T00:01:08.232Z,98803.19
2022-12-04T00:03:35.407Z,98813.59
2022-12-04T00:06:06.250Z,98823.03
2022-12-04T00:08:33.174Z,98811.53
2022-12-04T00:11:00.030Z,98794.25
2022-12-04T00:13:27.053Z,98795.13
2022-12-04T00:15:54.102Z,98786.56
2022-12-04T00:18:21.043Z,98785.69
2022-12-04T00:20:48.060Z,98783.06
2022-12-04T00:23:14.821Z,98792.63
2022-12-04T00:25:41.710Z,98792.50
2022-12-04T00:28:08.858Z,98786.41
2022-12-04T00:30:35.538Z,98787.34
2022-12-04T00:33:02.325Z,98794.25
2022-12-04T00:35:28.996Z,98792.50
2022-12-04T00:37:55.703Z,98783.94
2022-12-04T00:40:22.419Z,98796.06
2022-12-04T00:42:49.279Z,98798.75
2022-12-04T00:45:15.987Z,98797.84
2022-12-04T00:47:42.795Z,98793.44
2022-12-04T00:50:10.067Z,98789.78
2022-12-04T00:52:36.576Z,98788.88
2022-12-04T00:55:03.941Z,98778.59
2022-12-04T00:57:30.810Z,98795.94
2022-12-04T00:59:57.718Z,98794.09
2022-12-04T01:02:24.528Z,98781.19
2022-12-04T01:04:51.282Z,98781.09
2022-12-04T01:07:17.977Z,98777.66
2022-12-04T01:09:44.686Z,98772.41
2022-12-04T01:12:14.926Z,98776.81
2022-12-04T01:14:44.370Z,98773.34
2022-12-04T01:17:11.059Z,98772.41
2022-12-04T01:19:37.782Z,98773.34
2022-12-04T01:22:04.490Z,98773.25
2022-12-04T01:24:31.314Z,98773.09
2022-12-04T01:26:57.991Z,98772.41
2022-12-04T01:29:24.699Z,98770.66
2022-12-04T01:31:51.439Z,98765.50
2022-12-04T01:34:18.225Z,98764.59
2022-12-04T01:36:44.924Z,98752.47
2022-12-04T01:39:12.152Z,98732.59
2022-12-04T01:41:38.718Z,98751.53
2022-12-04T01:44:16.697Z,98735.00
2022-12-04T01:46:45.827Z,98736.00
2022-12-04T01:49:24.151Z,98724.75
2022-12-04T01:51:59.406Z,98719.44
2022-12-04T01:54:30.235Z,98715.19
2022-12-04T01:57:15.118Z,98722.16
2022-12-04T01:59:47.882Z,98729.84
2022-12-04T02:02:19.435Z,98715.97
2022-12-04T02:04:46.792Z,98720.34
2022-12-04T02:07:13.458Z,98720.25
2022-12-04T02:09:42.275Z,98707.31
2022-12-04T02:12:11.622Z,98708.88
2022-12-04T02:14:56.828Z,98706.13
2022-12-04T02:17:28.650Z,98698.28
2022-12-04T02:20:16.584Z,98694.75
2022-12-04T02:23:24.963Z,98703.38
2022-12-04T02:26:33.240Z,98701.47
2022-12-04T02:29:14.738Z,98692.84
2022-12-04T02:31:55.636Z,98705.81
2022-12-04T02:34:43.235Z,98711.03
2022-12-04T02:37:16.909Z,98697.88
2022-12-04T02:39:52.098Z,98704.78
2022-12-04T02:42:59.746Z,98705.69
2022-12-04T02:45:41.006Z,98714.63
2022-12-04T02:48:08.591Z,98699.84
2022-12-04T02:50:38.655Z,98684.38
2022-12-04T02:53:37.283Z,98692.25
2022-12-04T02:56:11.873Z,98687.06
2022-12-04T02:58:45.769Z,98686.19
2022-12-04T03:01:24.032Z,98685.34
2022-12-04T03:04:07.288Z,98680.13
2022-12-04T03:06:39.184Z,98689.69
2022-12-04T03:09:20.034Z,98672.41
2022-12-04T03:11:52.719Z,98670.72
2022-12-04T03:14:25.550Z,98672.56
2022-12-04T03:16:57.513Z,98696.09
2022-12-04T03:19:33.431Z,98709.09
2022-12-04T03:22:04.463Z,98697.84
2022-12-04T03:24:36.303Z,98698.69
2022-12-04T03:27:30.539Z,98709.09
2022-12-04T03:30:05.812Z,98701.25
2022-12-04T03:33:00.716Z,98683.88
2022-12-04T03:35:37.968Z,98686.59
2022-12-04T03:38:12.519Z,98696.03
2022-12-04T03:40:59.179Z,98693.47
2022-12-04T03:43:49.998Z,98701.31
2022-12-04T03:46:44.965Z,98703.09
2022-12-04T03:49:26.992Z,98690.88
2022-12-04T03:52:11.145Z,98683.16
2022-12-04T03:54:44.747Z,98690.75
2022-12-04T03:57:36.565Z,98678.56
2022-12-04T04:00:07.986Z,98679.38
2022-12-04T04:02:39.965Z,98685.44
2022-12-04T04:05:09.999Z,98684.47
2022-12-04T04:07:51.224Z,98676.66
2022-12-04T04:10:21.308Z,98675.84
2022-12-04T04:13:13.521Z,98688.97
2022-12-04T04:16:04.445Z,98677.78
2022-12-04T04:19:08.136Z,98689.84
2022-12-04T04:21:56.361Z,98688.06
2022-12-04T04:24:45.455Z,98674.97
2022-12-04T04:27:12.455Z,98681.84
2022-12-04T04:29:39.598Z,98698.41
2022-12-04T04:32:28.751Z,98682.84
2022-12-04T04:35:14.266Z,98703.66
2022-12-04T04:37:40.971Z,98704.41
2022-12-04T04:40:29.309Z,98703.38
2022-12-04T04:43:05.262Z,98688.69
2022-12-04T04:45:37.976Z,98697.47
2022-12-04T04:48:41.361Z,98694.81
2022-12-04T04:51:08.461Z,98681.88
2022-12-04T04:54:04.444Z,98688.78
2022-12-04T04:56:31.520Z,98686.16
2022-12-04T04:58:58.275Z,98684.31
2022-12-04T05:01:28.065Z,98686.09
2022-12-04T05:03:54.851Z,98669.66
2022-12-04T05:06:21.609Z,98673.03
2022-12-04T05:08:49.343Z,98683.41
2022-12-04T05:11:17.196Z,98686.91
2022-12-04T05:13:43.996Z,98684.38
2022-12-04T05:16:13.093Z,98687.84
2022-12-04T05:18:40.557Z,98698.31
2022-12-04T05:21:08.273Z,98698.28
2022-12-04T05:23:35.377Z,98699.13
2022-12-04T05:26:04.469Z,98708.78
2022-12-04T05:28:31.337Z,98708.78
2022-12-04T05:31:00.560Z,98713.03
2022-12-04T05:33:27.728Z,98699.25
2022-12-04T05:36:06.105Z,98710.50
2022-12-04T05:38:33.565Z,98705.28
2022-12-04T05:41:03.144Z,98701.03
2022-12-04T05:43:30.230Z,98705.38
2022-12-04T05:46:02.236Z,98702.97
2022-12-04T05:48:29.018Z,98698.59
2022-12-04T05:50:56.374Z,98704.75
2022-12-04T05:53:23.576Z,98697.75
2022-12-04T05:55:58.462Z,98677.91
2022-12-04T05:58:26.298Z,98689.06
2022-12-04T06:00:53.298Z,98700.41
2022-12-04T06:03:20.451Z,98702.91
2022-12-04T06:05:47.446Z,98718.47
2022-12-04T06:08:14.443Z,98719.41
2022-12-04T06:10:41.221Z,98706.38
2022-12-04T06:13:08.791Z,98709.09
2022-12-04T06:15:40.001Z,98716.91
2022-12-04T06:18:06.989Z,98711.72
2022-12-04T06:20:34.671Z,98702.16
2022-12-04T06:23:01.800Z,98706.56
2022-12-04T06:25:28.668Z,98691.91
2022-12-04T06:27:55.382Z,98702.97
2022-12-04T06:30:22.245Z,98703.97
2022-12-04T06:32:49.002Z,98706.66
2022-12-04T06:35:15.708Z,98705.75
2022-12-04T06:37:42.571Z,98693.59
2022-12-04T06:40:09.709Z,98697.84
2022-12-04T06:42:36.471Z,98703.97
2022-12-04T06:45:03.684Z,98701.22
2022-12-04T06:47:30.239Z,98698.63
2022-12-04T06:49:57.133Z,98717.75
2022-12-04T06:52:25.503Z,98716.09
2022-12-04T06:54:52.513Z,98729.03
2022-12-04T06:57:20.595Z,98715.00
2022-12-04T06:59:48.691Z,98715.91
2022-12-04T07:02:16.590Z,98708.25
2022-12-04T07:04:48.794Z,98707.38
2022-12-04T07:07:17.887Z,98702.13
2022-12-04T07:09:46.119Z,98707.25
2022-12-04T07:12:14.334Z,98697.59
2022-12-04T07:14:43.775Z,98705.44
2022-12-04T07:17:10.891Z,98715.84
2022-12-04T07:19:39.411Z,98721.06
2022-12-04T07:22:09.605Z,98716.84
2022-12-04T07:24:40.614Z,98721.91
2022-12-04T07:27:09.020Z,98718.47
2022-12-04T07:29:36.180Z,98725.31
2022-12-04T07:32:14.321Z,98723.50
2022-12-04T07:34:43.678Z,98733.13
2022-12-04T07:37:10.724Z,98730.47
2022-12-04T07:39:38.063Z,98730.38
2022-12-04T07:42:05.584Z,98721.59
2022-12-04T07:44:34.932Z,98712.25
2022-12-04T07:47:03.075Z,98711.34
2022-12-04T07:49:30.068Z,98713.84
2022-12-04T07:51:57.692Z,98706.97
2022-12-04T07:54:25.053Z,98713.06
2022-12-04T07:56:52.155Z,98713.91
2022-12-04T07:59:19.036Z,98712.97
2022-12-04T08:01:46.981Z,98706.88
2022-12-04T08:04:16.239Z,98712.91
2022-12-04T08:06:43.765Z,98726.94
2022-12-04T08:09:11.294Z,98713.03
2022-12-04T08:11:39.258Z,98712.22
2022-12-04T08:14:09.101Z,98708.66
2022-12-04T08:16:36.255Z,98697.53
2022-12-04T08:19:05.064Z,98706.13
2022-12-04T08:21:32.867Z,98708.66
2022-12-04T08:24:01.790Z,98721.72
2022-12-04T08:26:31.461Z,98729.47
2022-12-04T08:28:59.416Z,98722.38
2022-12-04T08:31:29.384Z,98707.81
2022-12-04T08:34:06.769Z,98713.59
2022-12-04T08:36:35.597Z,98721.44
2022-12-04T08:39:03.064Z,98717.84
2022-12-04T08:41:29.652Z,98727.69
2022-12-04T08:43:57.806Z,98724.19
2022-12-04T08:46:26.370Z,98734.44
2022-12-04T08:48:54.378Z,98729.19
2022-12-04T08:51:24.464Z,98714.38
2022-12-04T08:53:58.959Z,98731.00
2022-12-04T08:56:27.522Z,98737.91
2022-12-04T08:58:56.155Z,98730.22
2022-12-04T09:01:23.272Z,98736.31
2022-12-04T09:03:50.629Z,98750.03
2022-12-04T09:06:18.391Z,98750.78
2022-12-04T09:08:45.482Z,98748.13
2022-12-04T09:11:18.465Z,98756.63
2022-12-04T09:13:45.633Z,98752.31
2022-12-04T09:16:13.981Z,98749.53
2022-12-04T09:18:40.807Z,98752.16
2022-12-04T09:21:11.158Z,98757.28
2022-12-04T09:23:41.371Z,98748.16
2022-12-04T09:26:27.632Z,98749.53
2022-12-04T09:28:56.591Z,98745.22
2022-12-04T09:31:24.523Z,98743.34
2022-12-04T09:33:52.343Z,98763.41
2022-12-04T09:36:20.026Z,98768.47
2022-12-04T09:38:53.407Z,98757.00
2022-12-04T09:41:45.409Z,98749.19
2022-12-04T09:44:27.314Z,98737.84
2022-12-04T09:47:04.163Z,98727.28
2022-12-04T09:49:52.282Z,98729.09
2022-12-04T09:52:46.313Z,98722.09
2022-12-04T09:55:20.528Z,98728.09
2022-12-04T09:57:50.919Z,98716.84
2022-12-04T10:00:19.903Z,98723.63
2022-12-04T10:02:56.245Z,98719.97
2022-12-04T10:05:42.166Z,98721.72
2022-12-04T10:08:22.933Z,98717.38
2022-12-04T10:11:17.678Z,98709.34
2022-12-04T10:13:50.371Z,98707.59
2022-12-04T10:16:27.128Z,98701.56
2022-12-04T10:19:05.251Z,98697.09
2022-12-04T10:21:53.752Z,98708.47
2022-12-04T10:24:39.056Z,98704.81
2022-12-04T10:27:14.766Z,98703.16
2022-12-04T10:29:46.941Z,98705.66
2022-12-04T10:32:33.459Z,98698.69
2022-12-04T10:35:16.419Z,98694.41
2022-12-04T10:37:44.047Z,98700.34
2022-12-04T10:40:21.430Z,98696.84
2022-12-04T10:43:05.873Z,98673.69
2022-12-04T10:45:32.587Z,98689.78
2022-12-04T10:47:59.513Z,98688.09
2022-12-04T10:50:26.765Z,98690.66
2022-12-04T10:52:53.973Z,98682.88
2022-12-04T10:55:34.161Z,98681.25
2022-12-04T10:58:02.811Z,98675.16
2022-12-04T11:00:32.998Z,98675.03
2022-12-04T11:03:09.184Z,98672.38
2022-12-04T11:05:43.433Z,98663.78
2022-12-04T11:08:24.290Z,98659.50
2022-12-04T11:11:04.055Z,98670.56
2022-12-04T11:13:31.149Z,98655.94
2022-12-04T11:15:59.312Z,98649.78
2022-12-04T11:18:31.720Z,98655.72
2022-12-04T11:21:13.259Z,98653.22
2022-12-04T11:23:48.836Z,98645.38
2022-12-04T11:26:18.510Z,98647.72
2022-12-04T11:28:52.041Z,98628.84
2022-12-04T11:31:22.337Z,98631.25
2022-12-04T11:33:59.770Z,98630.38
2022-12-04T11:36:41.054Z,98610.69
2022-12-04T11:39:20.793Z,98631.09
2022-12-04T11:41:47.721Z,98617.97
2022-12-04T11:44:26.393Z,98630.16
2022-12-04T11:46:55.556Z,98624.88
2022-12-04T11:49:23.897Z,98617.69
2022-12-04T11:52:15.665Z,98607.28
2022-12-04T11:54:53.695Z,98614.44
2022-12-04T11:57:23.253Z,98606.38
2022-12-04T11:59:56.323Z,98609.69
2022-12-04T12:02:44.466Z,98609.53
2022-12-04T12:05:29.993Z,98599.09
2022-12-04T12:08:23.691Z,98589.59
2022-12-04T12:10:53.021Z,98590.38
2022-12-04T12:13:39.932Z,98584.47
2022-12-04T12:16:19.125Z,98593.97
2022-12-04T12:18:53.871Z,98601.72
2022-12-04T12:21:55.158Z,98598.09
2022-12-04T12:24:49.893Z,98599.78
2022-12-04T12:27:57.261Z,98603.22
2022-12-04T12:30:27.098Z,98586.69
2022-12-04T12:32:56.492Z,98593.66
2022-12-04T12:35:32.038Z,98590.13
2022-12-04T12:38:06.830Z,98595.25
2022-12-04T12:40:47.494Z,98581.41
2022-12-04T12:43:27.637Z,98582.09
2022-12-04T12:46:17.025Z,98585.56
2022-12-04T12:49:09.216Z,98579.41
2022-12-04T12:51:45.508Z,98579.38
2022-12-04T12:54:28.404Z,98587.09
2022-12-04T12:57:01.901Z,98579.28
2022-12-04T12:59:29.123Z,98581.88
2022-12-04T13:02:02.917Z,98585.91
2022-12-04T13:04:44.585Z,98580.31
2022-12-04T13:07:17.633Z,98575.88
2022-12-04T13:10:02.850Z,98572.56
2022-12-04T13:12:39.197Z,98587.44
2022-12-04T13:15:06.649Z,98577.88
2022-12-04T13:17:38.939Z,98570.84
2022-12-04T13:20:15.076Z,98572.53
2022-12-04T13:22:45.190Z,98580.50
2022-12-04T13:25:41.709Z,98578.78
2022-12-04T13:28:15.039Z,98581.34
2022-12-04T13:31:10.115Z,98579.66
2022-12-04T13:33:43.805Z,98578.78
2022-12-04T13:36:22.762Z,98571.81
2022-12-04T13:39:01.325Z,98573.53
2022-12-04T13:41:29.236Z,98570.16
2022-12-04T13:43:57.549Z,98571.00
2022-12-04T13:46:40.238Z,98573.63
2022-12-04T13:49:31.826Z,98572.84
2022-12-04T13:52:00.249Z,98575.47
2022-12-04T13:54:35.811Z,98576.47
2022-12-04T13:57:14.743Z,98574.63
2022-12-04T13:59:42.354Z,98572.78
2022-12-04T14:02:44.496Z,98581.41
2022-12-04T14:05:12.266Z,98579.69
2022-12-04T14:07:43.116Z,98576.22
2022-12-04T14:10:16.052Z,98586.72
2022-12-04T14:12:49.952Z,98589.44
2022-12-04T14:15:28.549Z,98579.81
2022-12-04T14:17:59.925Z,98585.91
2022-12-04T14:20:30.253Z,98587.78
2022-12-04T14:23:09.976Z,98584.22
2022-12-04T14:25:39.822Z,98584.31
2022-12-04T14:28:38.716Z,98585.22
2022-12-04T14:31:08.679Z,98580.78
2022-12-04T14:34:17.576Z,98583.44
2022-12-04T14:36:47.843Z,98590.41
2022-12-04T14:39:58.098Z,98588.56
2022-12-04T14:42:28.778Z,98598.31
2022-12-04T14:44:59.887Z,98594.88
2022-12-04T14:47:41.862Z,98595.69
2022-12-04T14:50:25.365Z,98601.06
2022-12-04T14:53:17.569Z,98598.44
2022-12-04T14:56:10.827Z,98611.56
2022-12-04T14:58:39.295Z,98607.31
2022-12-04T15:01:41.559Z,98605.56
2022-12-04T15:04:29.271Z,98612.66
2022-12-04T15:07:00.361Z,98600.59
2022-12-04T15:09:46.503Z,98606.63
2022-12-04T15:12:34.187Z,98601.41
2022-12-04T15:15:25.836Z,98599.63
2022-12-04T15:18:10.276Z,98600.50
2022-12-04T15:20:52.530Z,98596.16
2022-12-04T15:23:36.567Z,98593.66
2022-12-04T15:26:25.731Z,98603.44
2022-12-04T15:29:00.601Z,98606.09
2022-12-04T15:31:49.803Z,98604.66
2022-12-04T15:34:21.892Z,98616.94
2022-12-04T15:36:55.619Z,98613.59
2022-12-04T15:39:26.600Z,98611.00
2022-12-04T15:42:15.483Z,98618.88
2022-12-04T15:45:00.747Z,98612.16
2022-12-04T15:47:33.362Z,98613.00
2022-12-04T15:50:22.924Z,98617.44
2022-12-04T15:52:58.569Z,98614.97
2022-12-04T15:55:28.033Z,98620.09
2022-12-04T15:58:06.972Z,98619.41
2022-12-04T16:00:38.872Z,98623.78
2022-12-04T16:03:26.231Z,98622.19
2022-12-04T16:06:05.822Z,98628.38
2022-12-04T16:08:36.728Z,98629.38
2022-12-04T16:11:07.979Z,98632.94
2022-12-04T16:13:38.910Z,98633.03
2022-12-04T16:16:14.267Z,98636.63
2022-12-04T16:18:43.665Z,98627.03
2022-12-04T16:21:23.910Z,98633.13
2022-12-04T16:23:51.039Z,98642.72
2022-12-04T16:26:20.522Z,98640.28
2022-12-04T16:28:47.950Z,98644.75
2022-12-04T16:31:24.080Z,98648.22
2022-12-04T16:33:50.971Z,98656.09
2022-12-04T16:36:19.042Z,98658.59
2022-12-04T16:39:06.219Z,98654.41
2022-12-04T16:41:33.902Z,98658.81
2022-12-04T16:44:01.905Z,98657.16
2022-12-04T16:46:31.147Z,98663.22
2022-12-04T16:49:04.188Z,98658.94
2022-12-04T16:51:38.145Z,98664.13
2022-12-04T16:54:06.025Z,98660.81
2022-12-04T16:56:33.236Z,98660.91
2022-12-04T16:59:00.468Z,98653.22
2022-12-04T17:01:33.740Z,98658.41
2022-12-04T17:04:00.861Z,98655.06
2022-12-04T17:06:27.771Z,98671.69
2022-12-04T17:08:54.455Z,98659.47
2022-12-04T17:11:21.164Z,98652.41
2022-12-04T17:13:47.952Z,98649.00
2022-12-04T17:16:17.612Z,98656.84
2022-12-04T17:18:46.504Z,98657.69
2022-12-04T17:21:14.145Z,98647.28
2022-12-04T17:23:41.156Z,98652.47
2022-12-04T17:26:10.456Z,98662.00
2022-12-04T17:28:37.299Z,98666.34
2022-12-04T17:31:11.715Z,98666.38
2022-12-04T17:33:38.601Z,98663.03
2022-12-04T17:36:10.791Z,98661.28
2022-12-04T17:38:37.992Z,98656.94
2022-12-04T17:41:04.918Z,98659.59
2022-12-04T17:43:32.178Z,98654.38
2022-12-04T17:45:59.041Z,98664.00
2022-12-04T17:48:27.554Z,98683.16
2022-12-04T17:51:06.063Z,98682.41
2022-12-04T17:53:32.822Z,98689.28
2022-12-04T17:56:04.447Z,98682.28
2022-12-04T17:58:32.806Z,98664.84
2022-12-04T18:01:07.320Z,98676.19
2022-12-04T18:03:34.470Z,98684.78
2022-12-04T18:06:01.696Z,98688.31
2022-12-04T18:08:29.571Z,98694.41
2022-12-04T18:10:57.361Z,98701.38
2022-12-04T18:13:24.334Z,98694.59
2022-12-04T18:15:51.061Z,98690.13
2022-12-04T18:18:17.766Z,98691.72
2022-12-04T18:20:44.818Z,98704.75
2022-12-04T18:23:11.713Z,98702.19
2022-12-04T18:25:38.423Z,98705.59
2022-12-04T18:28:05.219Z,98693.44
2022-12-04T18:30:34.019Z,98697.03
2022-12-04T18:33:00.750Z,98702.13
2022-12-04T18:35:27.431Z,98700.38
2022-12-04T18:37:54.116Z,98700.44
2022-12-04T18:40:20.896Z,98702.19
2022-12-04T18:42:50.081Z,98710.97
2022-12-04T18:45:16.924Z,98690.47
2022-12-04T18:47:43.670Z,98704.97
2022-12-04T18:50:10.624Z,98697.22
2022-12-04T18:52:39.347Z,98691.00
2022-12-04T18:55:06.376Z,98697.03
2022-12-04T18:57:33.064Z,98677.91
2022-12-04T19:00:00.114Z,98690.94
2022-12-04T19:02:27.004Z,98699.66
2022-12-04T19:04:53.772Z,98700.47
2022-12-04T19:07:20.446Z,98705.69
2022-12-04T19:10:10.560Z,98705.75
2022-12-04T19:12:33.832Z,98709.22
2022-12-04T19:15:00.554Z,98709.22
2022-12-04T19:17:27.326Z,98703.09
2022-12-04T19:19:54.602Z,98709.16
2022-12-04T19:22:21.599Z,98696.19
2022-12-04T19:24:48.292Z,98705.56
2022-12-04T19:27:15.327Z,98705.59
2022-12-04T19:29:43.331Z,98703.84
2022-12-04T19:32:10.764Z,98710.84
2022-12-04T19:34:37.519Z,98711.75
2022-12-04T19:37:04.227Z,98711.69
2022-12-04T19:39:30.913Z,98702.19
2022-12-04T19:41:57.726Z,98701.28
2022-12-04T19:47:11.133Z,98703.84
2022-12-04T19:49:37.826Z,98702.91
2022-12-04T19:52:05.556Z,98708.94
2022-12-04T19:54:32.370Z,98709.03
2022-12-04T19:56:59.144Z,98719.28
2022-12-04T19:59:27.739Z,98721.88
2022-12-04T20:01:56.312Z,98709.59
2022-12-04T20:04:23.212Z,98721.72
2022-12-04T20:06:50.019Z,98706.91
2022-12-04T20:09:22.229Z,98695.66
2022-12-04T20:11:49.460Z,98712.13
2022-12-04T20:14:16.215Z,98726.91
2022-12-04T20:16:43.192Z,98719.09
2022-12-04T20:19:15.841Z,98711.41
2022-12-04T20:21:43.813Z,98718.22
2022-12-04T20:24:16.543Z,98706.03
2022-12-04T20:26:45.436Z,98712.97
2022-12-04T20:29:16.234Z,98707.69
2022-12-04T20:31:44.818Z,98703.34
2022-12-04T20:34:15.063Z,98719.88
2022-12-04T20:36:43.739Z,98713.72
2022-12-04T20:39:13.334Z,98711.97
2022-12-04T20:41:40.673Z,98723.38
2022-12-04T20:44:09.481Z,98714.69
2022-12-04T20:46:39.108Z,98725.28
2022-12-04T20:49:18.844Z,98719.19
2022-12-04T20:51:48.707Z,98721.81
2022-12-04T20:54:18.625Z,98720.94
2022-12-04T20:56:46.054Z,98708.75
2022-12-04T20:59:14.236Z,98712.19
2022-12-04T21:01:41.796Z,98711.34
2022-12-04T21:04:08.696Z,98707.84
2022-12-04T21:06:38.145Z,98700.00
2022-12-04T21:09:11.883Z,98694.00
2022-12-04T21:11:41.882Z,98701.75
2022-12-04T21:14:33.912Z,98699.91
2022-12-04T21:17:01.667Z,98701.75
2022-12-04T21:19:28.692Z,98700.91
2022-12-04T21:21:55.810Z,98697.47
2022-12-04T21:24:23.545Z,98702.69
2022-12-04T21:26:50.318Z,98688.72
2022-12-04T21:29:16.992Z,98685.19
2022-12-04T21:31:43.754Z,98695.75
2022-12-04T21:34:13.711Z,98689.97
2022-12-04T21:36:41.051Z,98710.63
2022-12-04T21:39:08.358Z,98695.25
2022-12-04T21:41:54.102Z,98708.03
2022-12-04T21:44:21.876Z,98712.31
2022-12-04T21:46:49.105Z,98713.97
2022-12-04T21:49:16.432Z,98717.41
2022-12-04T21:51:59.270Z,98726.06
2022-12-04T21:54:27.634Z,98724.31
2022-12-04T21:56:55.255Z,98726.16
2022-12-04T21:59:22.806Z,98721.00
2022-12-04T22:01:49.603Z,98712.38
2022-12-04T22:04:16.497Z,98724.31
2022-12-04T22:06:43.555Z,98717.53
2022-12-04T22:09:12.392Z,98715.84
2022-12-04T22:11:43.565Z,98720.31
2022-12-04T22:14:11.607Z,98726.41
2022-12-04T22:16:42.335Z,98716.03
2022-12-04T22:19:10.754Z,98717.72
2022-12-04T22:21:37.623Z,98722.94
2022-12-04T22:24:05.363Z,98727.22
2022-12-04T22:26:32.298Z,98728.91
2022-12-04T22:28:59.442Z,98721.00
2022-12-04T22:31:27.007Z,98718.31
2022-12-04T22:33:56.424Z,98712.16
2022-12-04T22:36:25.503Z,98711.31
2022-12-04T22:39:08.911Z,98706.00
2022-12-04T22:41:37.451Z,98695.50
2022-12-04T22:44:04.865Z,98697.41
2022-12-04T22:46:32.213Z,98692.19
2022-12-04T22:49:00.028Z,98694.81
2022-12-04T22:51:27.419Z,98668.25
2022-12-04T22:53:56.932Z,98684.44
2022-12-04T22:56:23.778Z,98691.34
2022-12-04T22:58:51.302Z,98701.00
2022-12-04T23:01:20.824Z,98688.75
2022-12-04T23:03:48.290Z,98694.81
2022-12-04T23:06:16.538Z,98694.84
2022-12-04T23:08:43.983Z,98699.22
2022-12-04T23:11:13.608Z,98692.19
2022-12-04T23:13:41.168Z,98694.81
2022-12-04T23:16:09.861Z,98684.50
2022-12-04T23:18:37.799Z,98674.00
2022-12-04T23:21:06.939Z,98680.78
2022-12-04T23:23:35.651Z,98684.22
2022-12-04T23:26:07.716Z,98685.16
2022-12-04T23:28:34.862Z,98694.78
2022-12-04T23:31:01.936Z,98693.88
2022-12-04T23:33:29.483Z,98691.25
2022-12-04T23:35:58.072Z,98691.16
2022-12-04T23:38:25.935Z,98692.88
2022-12-04T23:41:11.119Z,98680.75
2022-12-04T23:43:38.964Z,98706.69
2022-12-04T23:46:10.916Z,98697.94
2022-12-04T23:48:38.970Z,98704.22
2022-12-04T23:51:06.063Z,98709.44
2022-12-04T23:53:32.846Z,98705.94
2022-12-04T23:56:03.557Z,98706.84
2022-12-04T23:58:31.656Z,98697.19
